Time;durP1;ratioP1;P1;durP2;ratioP2;P2;SDS_P1;SDS_P2;PMS_P1;PMS_P2;Temp;Humidity;BMP_temperature;BMP_pressure;BME280_temperature;BME280_humidity;BME280_pressure;Samples;Min_cycle;Max_cycle;Signal;HPM_P1;HPM_P2
2023/10/31 00:02:16;;;;;;;3.80;1.92;;;12.70;99.90;;;;;;5112335;28;20040;-70
2023/10/31 00:04:42;;;;;;;3.75;3.13;;;12.70;99.90;;;;;;5112598;28;20028;-70
2023/10/31 00:07:08;;;;;;;10.88;6.85;;;12.80;99.90;;;;;;5112469;28;20080;-71
2023/10/31 00:09:34;;;;;;;14.85;3.10;;;12.80;99.90;;;;;;5112491;28;20055;-73
2023/10/31 00:11:59;;;;;;;7.38;4.13;;;12.70;99.90;;;;;;5112585;28;20016;-74
2023/10/31 00:14:25;;;;;;;7.43;3.40;;;12.90;99.90;;;;;;5104795;28;20163;-74
2023/10/31 00:16:51;;;;;;;4.30;2.78;;;12.90;99.90;;;;;;5105682;28;20023;-72
2023/10/31 00:19:19;;;;;;;9.60;4.75;;;12.90;99.90;;;;;;5115507;28;20027;-73
2023/10/31 00:21:44;;;;;;;10.57;4.93;;;12.70;99.90;;;;;;5116448;28;20407;-74
2023/10/31 00:24:10;;;;;;;4.85;3.10;;;12.80;99.90;;;;;;5116006;28;20022;-74
2023/10/31 00:26:36;;;;;;;4.03;1.52;;;12.70;99.90;;;;;;5114843;28;20039;-73
2023/10/31 00:29:02;;;;;;;4.57;3.78;;;12.80;99.90;;;;;;5114853;28;20048;-73
2023/10/31 00:31:27;;;;;;;11.13;5.88;;;12.70;99.90;;;;;;5114496;28;20019;-74
2023/10/31 00:33:53;;;;;;;11.60;4.00;;;12.80;99.90;;;;;;5115887;28;20032;-74
2023/10/31 00:36:19;;;;;;;14.13;7.20;;;12.80;99.90;;;;;;5097481;28;20077;-74
2023/10/31 00:38:45;;;;;;;1.33;0.77;;;12.80;99.90;;;;;;5115938;28;20026;-74
2023/10/31 00:41:12;;;;;;;3.00;2.22;;;12.80;99.90;;;;;;5114566;28;20023;-74
2023/10/31 00:43:38;;;;;;;2.30;2.20;;;12.80;99.90;;;;;;5115867;28;20019;-72
2023/10/31 00:46:04;;;;;;;0.98;0.98;;;13.00;99.90;;;;;;5114016;28;20039;-72
2023/10/31 00:48:35;;;;;;;0.10;0.10;;;12.90;99.90;;;;;;5115438;28;20100;-70
2023/10/31 00:51:03;;;;;;;4.72;2.45;;;12.90;99.90;;;;;;5114274;28;20023;-73
2023/10/31 00:53:29;;;;;;;2.70;1.55;;;12.90;99.90;;;;;;5114208;28;20015;-72
2023/10/31 00:55:55;;;;;;;1.35;1.25;;;13.00;99.90;;;;;;5115949;28;20035;-71
2023/10/31 00:58:21;;;;;;;4.18;2.42;;;13.10;99.90;;;;;;5113926;28;20016;-71
2023/10/31 01:00:46;;;;;;;1.73;1.63;;;13.10;99.90;;;;;;5115417;28;20123;-72
2023/10/31 01:03:12;;;;;;;10.55;7.03;;;13.40;99.90;;;;;;5113961;28;20024;-73
2023/10/31 01:05:38;;;;;;;13.18;6.28;;;13.20;99.90;;;;;;5113929;28;20565;-72
2023/10/31 01:08:05;;;;;;;8.68;3.88;;;13.10;99.90;;;;;;5113778;28;20114;-72
2023/10/31 01:10:32;;;;;;;5.55;2.60;;;12.90;99.90;;;;;;5114305;28;20364;-73
2023/10/31 01:12:58;;;;;;;19.65;7.85;;;12.90;99.90;;;;;;5114108;28;20027;-72
2023/10/31 01:15:24;;;;;;;2.78;1.42;;;12.90;99.90;;;;;;5098972;28;20024;-70
2023/10/31 01:17:49;;;;;;;1.23;1.13;;;12.90;99.90;;;;;;5113975;28;20036;-72
2023/10/31 01:20:15;;;;;;;0.55;0.55;;;13.10;99.90;;;;;;5115116;28;20047;-71
2023/10/31 01:22:42;;;;;;;0.57;0.57;;;13.40;99.90;;;;;;5113735;28;20038;-72
2023/10/31 01:25:07;;;;;;;4.75;3.30;;;13.30;99.90;;;;;;5113749;28;20035;-72
2023/10/31 01:27:33;;;;;;;4.90;0.90;;;13.30;99.90;;;;;;5114688;28;20044;-74
2023/10/31 01:29:59;;;;;;;1.90;1.77;;;13.30;99.90;;;;;;5114402;28;20480;-74
2023/10/31 01:32:25;;;;;;;13.98;6.35;;;13.20;99.90;;;;;;5113509;28;20024;-74
2023/10/31 01:34:50;;;;;;;0.38;0.35;;;13.00;99.90;;;;;;5114781;28;20060;-71
2023/10/31 01:37:19;;;;;;;5.30;4.85;;;13.10;99.90;;;;;;5115080;28;20031;-70
2023/10/31 01:39:45;;;;;;;0.80;0.45;;;13.00;99.90;;;;;;5113287;28;20027;-70
2023/10/31 01:42:14;;;;;;;5.30;4.07;;;13.10;99.90;;;;;;5114830;28;20019;-70
2023/10/31 01:44:40;;;;;;;2.35;2.25;;;13.00;99.90;;;;;;5112835;28;20096;-70
2023/10/31 01:47:06;;;;;;;1.42;1.33;;;13.20;99.90;;;;;;5113268;28;20027;-70
2023/10/31 01:49:32;;;;;;;2.13;1.92;;;13.00;99.90;;;;;;5114228;28;20396;-70
2023/10/31 01:52:01;;;;;;;4.10;1.52;;;12.90;99.90;;;;;;5114564;28;20067;-70
2023/10/31 01:54:26;;;;;;;2.75;2.38;;;12.80;99.90;;;;;;5114403;28;20032;-73
2023/10/31 01:56:57;;;;;;;2.13;1.92;;;12.80;99.90;;;;;;5114172;28;20177;-70
2023/10/31 01:59:27;;;;;;;0.95;0.43;;;12.80;99.90;;;;;;5113163;28;20080;-72
2023/10/31 02:01:54;;;;;;;0.77;0.77;;;12.70;99.90;;;;;;5113988;28;20024;-72
2023/10/31 02:04:20;;;;;;;1.70;1.00;;;12.80;99.90;;;;;;5114353;28;20042;-69
2023/10/31 02:06:46;;;;;;;0.20;0.20;;;12.80;99.90;;;;;;5112748;28;20027;-70
2023/10/31 02:09:11;;;;;;;0.15;0.15;;;12.80;99.90;;;;;;5114321;28;20039;-69
2023/10/31 02:11:37;;;;;;;2.00;0.32;;;12.70;99.90;;;;;;5112132;28;20085;-69
2023/10/31 02:14:03;;;;;;;5.78;3.35;;;13.00;99.90;;;;;;5109737;28;20472;-69
2023/10/31 02:16:30;;;;;;;0.32;0.32;;;12.90;99.90;;;;;;5102808;28;20032;-70
2023/10/31 02:18:56;;;;;;;2.42;1.27;;;13.10;99.90;;;;;;5112551;28;20088;-69
2023/10/31 02:21:22;;;;;;;11.60;5.93;;;13.10;99.90;;;;;;5112717;28;20395;-69
2023/10/31 02:23:59;;;;;;;2.95;1.40;;;12.90;99.90;;;;;;5112560;28;20016;-69
2023/10/31 02:26:32;;;;;;;2.50;2.22;;;12.80;99.90;;;;;;5113531;28;20023;-69
2023/10/31 02:28:59;;;;;;;4.05;2.85;;;12.70;99.90;;;;;;5113568;28;20035;-69
2023/10/31 02:31:25;;;;;;;1.63;1.50;;;12.90;99.90;;;;;;5111109;28;20016;-70
2023/10/31 02:33:51;;;;;;;0.35;0.35;;;12.80;99.90;;;;;;5113670;28;20057;-70
2023/10/31 02:36:17;;;;;;;1.77;1.23;;;12.80;99.90;;;;;;5109709;28;20028;-70
2023/10/31 02:38:44;;;;;;;2.42;1.33;;;12.80;99.90;;;;;;5097857;28;20431;-69
2023/10/31 02:41:10;;;;;;;2.65;1.17;;;12.70;99.90;;;;;;5112857;28;20095;-70
2023/10/31 02:43:37;;;;;;;2.67;1.90;;;12.60;99.90;;;;;;5113310;28;20039;-70
2023/10/31 02:46:03;;;;;;;6.43;2.78;;;12.50;99.90;;;;;;5112325;28;20038;-70
2023/10/31 02:48:29;;;;;;;2.15;1.35;;;12.50;99.90;;;;;;5113052;28;20024;-70
2023/10/31 02:50:54;;;;;;;3.88;2.35;;;12.40;99.90;;;;;;5102280;28;20039;-69
2023/10/31 02:53:20;;;;;;;0.80;0.80;;;12.30;99.90;;;;;;5110470;28;20024;-70
2023/10/31 02:55:46;;;;;;;0.52;0.50;;;12.20;99.90;;;;;;5113204;28;20072;-69
2023/10/31 02:58:12;;;;;;;1.27;0.65;;;12.50;99.90;;;;;;5111757;28;20430;-70
2023/10/31 03:00:38;;;;;;;0.50;0.50;;;12.40;99.90;;;;;;5112081;28;20028;-70
2023/10/31 03:03:04;;;;;;;3.15;1.15;;;12.40;99.90;;;;;;5111713;28;20027;-69
2023/10/31 03:05:30;;;;;;;11.30;0.60;;;12.40;99.90;;;;;;5106971;28;20027;-69
2023/10/31 03:07:56;;;;;;;0.13;0.13;;;12.40;99.90;;;;;;5103760;28;20379;-69
2023/10/31 03:10:22;;;;;;;0.52;0.52;;;12.50;99.90;;;;;;5111524;28;20932;-69
2023/10/31 03:12:47;;;;;;;0.55;0.40;;;12.50;99.90;;;;;;5113043;28;20414;-70
2023/10/31 03:15:13;;;;;;;1.65;1.55;;;12.50;99.90;;;;;;5111835;28;20475;-70
2023/10/31 03:17:39;;;;;;;0.73;0.65;;;12.40;99.90;;;;;;5094599;28;20027;-69
2023/10/31 03:20:05;;;;;;;0.40;0.40;;;12.50;99.90;;;;;;5111857;28;20027;-72
2023/10/31 03:22:31;;;;;;;0.38;0.38;;;12.50;99.90;;;;;;5111613;28;20468;-70
2023/10/31 03:24:57;;;;;;;3.17;2.00;;;12.50;99.90;;;;;;5111495;28;20032;-70
2023/10/31 03:27:23;;;;;;;0.73;0.68;;;12.60;99.90;;;;;;5112626;28;20451;-70
2023/10/31 03:29:48;;;;;;;6.30;1.38;;;12.70;99.90;;;;;;5112787;28;20488;-70
2023/10/31 03:32:15;;;;;;;0.00;0.00;;;12.60;99.90;;;;;;5112984;28;20012;-73
2023/10/31 03:34:41;;;;;;;1.42;1.08;;;12.60;99.90;;;;;;5112580;28;20088;-72
2023/10/31 03:37:07;;;;;;;0.55;0.55;;;12.50;99.90;;;;;;5112751;28;20209;-73
2023/10/31 03:39:33;;;;;;;2.53;2.38;;;12.40;99.90;;;;;;5108286;28;20384;-70
2023/10/31 03:41:59;;;;;;;1.33;0.50;;;12.30;99.90;;;;;;5101464;28;20027;-71
2023/10/31 03:44:25;;;;;;;0.17;0.17;;;12.50;99.90;;;;;;5112699;28;20032;-71
2023/10/31 03:46:51;;;;;;;1.98;1.00;;;12.50;99.90;;;;;;5111542;28;20030;-72
2023/10/31 03:49:16;;;;;;;0.10;0.10;;;12.50;99.90;;;;;;5111222;28;20058;-71
2023/10/31 03:51:42;;;;;;;8.48;3.70;;;12.30;99.90;;;;;;5111529;28;20027;-73
2023/10/31 03:54:08;;;;;;;1.13;1.08;;;12.20;99.90;;;;;;5097414;28;20105;-73
2023/10/31 03:56:41;;;;;;;1.20;0.88;;;12.10;99.90;;;;;;5116733;28;20015;-73
2023/10/31 03:59:07;;;;;;;0.35;0.35;;;12.20;99.90;;;;;;5115428;28;20027;-71
2023/10/31 04:01:33;;;;;;;1.10;0.80;;;12.20;99.90;;;;;;5116286;28;20046;-72
2023/10/31 04:04:00;;;;;;;4.68;2.05;;;12.10;99.90;;;;;;5115223;28;20499;-73
2023/10/31 04:06:26;;;;;;;1.25;1.08;;;12.10;99.90;;;;;;5115397;28;20115;-71
2023/10/31 04:08:52;;;;;;;0.40;0.40;;;12.20;99.90;;;;;;5114763;28;20032;-71
2023/10/31 04:11:18;;;;;;;0.68;0.68;;;12.00;99.90;;;;;;5116597;28;20031;-70
2023/10/31 04:13:44;;;;;;;0.65;0.65;;;12.10;99.90;;;;;;5116477;28;20080;-70
2023/10/31 04:16:10;;;;;;;1.42;0.85;;;12.00;99.90;;;;;;5116517;28;20027;-70
2023/10/31 04:18:36;;;;;;;1.20;0.80;;;12.10;99.90;;;;;;5116480;28;20042;-73
2023/10/31 04:21:02;;;;;;;0.35;0.35;;;12.00;99.90;;;;;;5116358;28;20024;-74
2023/10/31 04:23:28;;;;;;;11.45;2.15;;;12.10;99.90;;;;;;5115790;28;20032;-74
2023/10/31 04:25:53;;;;;;;0.93;0.60;;;12.00;99.90;;;;;;5116367;28;20467;-74
2023/10/31 04:28:19;;;;;;;0.82;0.73;;;12.00;99.90;;;;;;5115978;28;20034;-74
2023/10/31 04:30:45;;;;;;;2.10;1.05;;;11.90;99.90;;;;;;5116099;28;20032;-70
2023/10/31 04:33:10;;;;;;;0.30;0.30;;;11.80;99.90;;;;;;5115897;28;20388;-73
2023/10/31 04:35:36;;;;;;;0.28;0.28;;;11.80;99.90;;;;;;5115868;28;20035;-75
2023/10/31 04:38:02;;;;;;;0.17;0.17;;;11.80;99.90;;;;;;5114395;28;20028;-73
2023/10/31 04:40:28;;;;;;;0.08;0.08;;;11.70;99.90;;;;;;5103988;28;20031;-74
2023/10/31 04:42:54;;;;;;;0.30;0.30;;;11.80;99.90;;;;;;5112175;28;20357;-74
2023/10/31 04:45:20;;;;;;;0.77;0.40;;;11.90;99.90;;;;;;5115709;28;20031;-74
2023/10/31 04:47:46;;;;;;;1.60;1.13;;;11.80;99.90;;;;;;5115549;28;20023;-73
2023/10/31 04:50:12;;;;;;;0.68;0.63;;;11.60;99.90;;;;;;5115701;28;20123;-74
2023/10/31 04:52:37;;;;;;;0.28;0.28;;;11.60;99.90;;;;;;5114167;28;20032;-74
2023/10/31 04:55:03;;;;;;;0.10;0.10;;;11.80;99.90;;;;;;5115473;28;20080;-73
2023/10/31 04:57:29;;;;;;;0.88;0.80;;;11.80;99.90;;;;;;5115717;28;20020;-74
2023/10/31 04:59:57;;;;;;;0.40;0.40;;;11.70;99.90;;;;;;5115226;28;20027;-74
2023/10/31 05:02:22;;;;;;;0.52;0.52;;;11.80;99.90;;;;;;5115489;28;20067;-73
2023/10/31 05:04:50;;;;;;;0.75;0.52;;;11.80;99.90;;;;;;5114585;28;20055;-73
2023/10/31 05:07:19;;;;;;;1.45;1.35;;;11.70;99.90;;;;;;5115069;28;20030;-74
2023/10/31 05:09:45;;;;;;;1.42;1.33;;;11.70;99.90;;;;;;5115103;28;20032;-73
2023/10/31 05:12:11;;;;;;;3.15;1.55;;;11.60;99.90;;;;;;5115369;28;20027;-74
2023/10/31 05:14:36;;;;;;;0.22;0.22;;;11.60;99.90;;;;;;5115137;28;20024;-73
2023/10/31 05:17:02;;;;;;;0.30;0.30;;;11.70;99.90;;;;;;5115059;28;20395;-74
2023/10/31 05:19:28;;;;;;;0.57;0.52;;;11.60;99.90;;;;;;5114917;28;20062;-73
2023/10/31 05:21:53;;;;;;;0.10;0.10;;;11.70;99.90;;;;;;5114841;28;20032;-74
2023/10/31 05:24:19;;;;;;;0.20;0.20;;;11.80;99.90;;;;;;5115131;28;20160;-74
2023/10/31 05:26:45;;;;;;;0.10;0.10;;;11.80;99.90;;;;;;5114912;28;20024;-73
2023/10/31 05:29:12;;;;;;;0.00;0.00;;;11.70;99.90;;;;;;5115093;28;20032;-74
2023/10/31 05:31:37;;;;;;;0.40;0.40;;;11.80;99.90;;;;;;5114641;28;20023;-74
2023/10/31 05:34:03;;;;;;;0.20;0.20;;;11.70;99.90;;;;;;5113635;28;20031;-74
2023/10/31 05:36:30;;;;;;;0.17;0.17;;;11.80;99.90;;;;;;5114503;28;20028;-73
2023/10/31 05:38:55;;;;;;;0.28;0.28;;;11.70;99.90;;;;;;5114632;28;20035;-70
2023/10/31 05:41:21;;;;;;;1.40;1.02;;;11.40;99.90;;;;;;5100305;28;20019;-72
2023/10/31 05:43:47;;;;;;;2.03;1.35;;;11.60;99.90;;;;;;5114646;28;20463;-71
2023/10/31 05:46:14;;;;;;;0.13;0.13;;;11.70;99.90;;;;;;5114426;28;20028;-72
2023/10/31 05:48:41;;;;;;;0.43;0.43;;;11.80;99.90;;;;;;5114536;28;20096;-72
2023/10/31 05:51:18;;;;;;;1.50;0.70;;;11.80;99.90;;;;;;5112718;28;20055;-72
2023/10/31 05:53:47;;;;;;;0.10;0.10;;;11.70;99.90;;;;;;5114680;28;20035;-70
2023/10/31 05:56:15;;;;;;;0.28;0.28;;;11.50;99.90;;;;;;5114220;28;20020;-70
2023/10/31 05:58:41;;;;;;;0.40;0.40;;;11.50;99.90;;;;;;5114399;28;20114;-71
2023/10/31 06:01:08;;;;;;;0.30;0.30;;;11.60;99.90;;;;;;5104989;28;20042;-71
2023/10/31 06:03:34;;;;;;;3.13;1.35;;;11.30;99.90;;;;;;5102210;28;20028;-73
2023/10/31 06:06:00;;;;;;;1.10;0.85;;;11.30;99.90;;;;;;5093458;28;20112;-71
2023/10/31 06:08:28;;;;;;;0.30;0.30;;;11.30;99.90;;;;;;5093710;28;20528;-71
2023/10/31 06:10:56;;;;;;;0.32;0.32;;;11.30;99.90;;;;;;5093645;28;20040;-73
2023/10/31 06:13:22;;;;;;;0.88;0.88;;;11.20;99.90;;;;;;5093734;28;20065;-70
2023/10/31 06:15:48;;;;;;;0.30;0.30;;;11.30;99.90;;;;;;5092587;28;20400;-70
2023/10/31 06:18:14;;;;;;;4.22;1.20;;;11.50;99.90;;;;;;5093173;28;20060;-70
2023/10/31 06:20:39;;;;;;;0.20;0.20;;;11.40;99.90;;;;;;5093432;28;20081;-72
2023/10/31 06:23:05;;;;;;;1.85;1.23;;;11.40;99.90;;;;;;5093584;28;20055;-71
2023/10/31 06:25:31;;;;;;;2.67;2.10;;;11.30;99.90;;;;;;5093338;28;20388;-70
2023/10/31 06:27:57;;;;;;;0.75;0.75;;;11.20;99.90;;;;;;5093121;28;20028;-71
2023/10/31 06:30:24;;;;;;;7.03;4.03;;;11.30;99.90;;;;;;5091951;28;20040;-70
2023/10/31 06:32:51;;;;;;;0.80;0.73;;;11.20;99.90;;;;;;5092956;28;20091;-70
2023/10/31 06:35:17;;;;;;;2.53;0.90;;;11.40;99.90;;;;;;5093236;28;20040;-71
2023/10/31 06:37:43;;;;;;;2.03;1.85;;;11.30;99.90;;;;;;5092928;28;20039;-71
2023/10/31 06:40:09;;;;;;;3.00;2.47;;;11.40;99.90;;;;;;5096124;27;20032;-70
2023/10/31 06:42:35;;;;;;;0.10;0.10;;;11.50;99.90;;;;;;5112204;27;20353;-73
2023/10/31 06:45:01;;;;;;;1.42;1.40;;;11.70;99.90;;;;;;5104226;27;20020;-71
2023/10/31 06:47:27;;;;;;;2.42;2.28;;;11.50;99.90;;;;;;5098639;27;20031;-71
2023/10/31 06:49:53;;;;;;;4.47;2.30;;;11.40;99.90;;;;;;5100748;27;20032;-71
2023/10/31 06:52:19;;;;;;;4.28;2.13;;;11.50;99.90;;;;;;5095468;28;20505;-70
2023/10/31 06:54:44;;;;;;;6.22;3.30;;;11.30;99.90;;;;;;5104480;27;20023;-71
2023/10/31 06:57:10;;;;;;;1.42;1.33;;;11.50;99.90;;;;;;5101144;27;20521;-73
2023/10/31 06:59:36;;;;;;;1.05;0.95;;;11.50;99.90;;;;;;5103100;27;20114;-70
2023/10/31 07:02:02;;;;;;;6.13;3.22;;;11.70;99.90;;;;;;5096252;27;20032;-70
2023/10/31 07:04:28;;;;;;;0.10;0.10;;;11.80;99.90;;;;;;5091830;28;20047;-70
2023/10/31 07:06:57;;;;;;;0.65;0.65;;;12.00;99.90;;;;;;5105152;27;20023;-70
2023/10/31 07:09:25;;;;;;;2.15;1.60;;;11.80;99.90;;;;;;5117351;27;20027;-70
2023/10/31 07:11:51;;;;;;;1.75;1.48;;;11.90;99.90;;;;;;5101207;27;20106;-69
2023/10/31 07:14:17;;;;;;;6.13;2.63;;;11.70;99.90;;;;;;5096403;28;20032;-69
2023/10/31 07:16:44;;;;;;;2.47;1.45;;;11.70;99.90;;;;;;5101698;28;20020;-70
2023/10/31 07:19:10;;;;;;;6.32;3.60;;;11.80;99.90;;;;;;5100136;28;20038;-70
2023/10/31 07:21:36;;;;;;;3.75;2.80;;;11.80;99.90;;;;;;5115931;28;20066;-70
2023/10/31 07:24:02;;;;;;;0.47;0.47;;;11.90;99.90;;;;;;5094385;28;20039;-69
2023/10/31 07:26:28;;;;;;;9.50;3.10;;;11.70;99.90;;;;;;5094923;28;20032;-69
2023/10/31 07:28:54;;;;;;;1.70;1.58;;;11.70;99.90;;;;;;5097104;27;20032;-69
2023/10/31 07:31:20;;;;;;;0.28;0.28;;;11.70;99.90;;;;;;5101860;27;20023;-70
2023/10/31 07:33:46;;;;;;;2.38;0.80;;;11.80;99.90;;;;;;5107302;27;20046;-69
2023/10/31 07:36:12;;;;;;;2.13;1.90;;;11.90;99.90;;;;;;5102009;27;20024;-70
2023/10/31 07:38:37;;;;;;;7.97;4.63;;;11.90;99.90;;;;;;5096926;27;20044;-69
2023/10/31 07:41:03;;;;;;;10.20;5.45;;;11.80;99.90;;;;;;5114157;27;20107;-69
2023/10/31 07:43:29;;;;;;;2.22;1.40;;;12.00;99.90;;;;;;5133973;27;20058;-69
2023/10/31 07:45:55;;;;;;;7.05;4.18;;;11.90;99.90;;;;;;5130078;27;20026;-69
2023/10/31 07:48:21;;;;;;;1.60;1.50;;;11.90;99.90;;;;;;5118740;27;20032;-70
2023/10/31 07:50:47;;;;;;;4.65;2.58;;;12.20;99.90;;;;;;5119940;27;20048;-69
2023/10/31 07:53:12;;;;;;;4.18;2.80;;;12.20;99.90;;;;;;5118880;27;20027;-69
2023/10/31 07:55:38;;;;;;;5.03;3.22;;;12.10;99.90;;;;;;5133110;27;20467;-69
2023/10/31 07:58:04;;;;;;;4.40;3.25;;;12.10;99.90;;;;;;5127248;27;20031;-69
2023/10/31 08:00:30;;;;;;;1.00;0.73;;;12.20;99.90;;;;;;5121442;27;20114;-69
2023/10/31 08:02:56;;;;;;;1.23;0.65;;;12.40;99.90;;;;;;5114111;27;20074;-69
2023/10/31 08:05:22;;;;;;;11.35;6.63;;;12.50;99.90;;;;;;5109021;27;20085;-70
2023/10/31 08:07:48;;;;;;;7.32;3.80;;;12.40;99.90;;;;;;5112164;27;20028;-70
2023/10/31 08:10:14;;;;;;;3.58;2.38;;;12.30;99.90;;;;;;5109697;27;20410;-70
2023/10/31 08:12:39;;;;;;;7.53;3.03;;;12.20;99.90;;;;;;5104869;27;20024;-69
2023/10/31 08:15:05;;;;;;;3.50;1.65;;;12.10;99.90;;;;;;5103902;27;20036;-69
2023/10/31 08:17:31;;;;;;;9.32;5.25;;;12.20;99.90;;;;;;5096003;27;20073;-69
2023/10/31 08:19:57;;;;;;;5.47;2.83;;;12.10;99.90;;;;;;5112822;27;20028;-70
2023/10/31 08:22:23;;;;;;;9.10;5.20;;;12.20;99.90;;;;;;5107929;27;20024;-69
2023/10/31 08:24:49;;;;;;;3.63;2.80;;;12.20;99.90;;;;;;5102908;27;20024;-69
2023/10/31 08:27:14;;;;;;;3.88;3.53;;;12.20;99.90;;;;;;5104564;27;20023;-68
2023/10/31 08:29:41;;;;;;;3.80;2.25;;;12.10;99.90;;;;;;5098633;27;20411;-69
2023/10/31 08:32:07;;;;;;;11.82;6.57;;;12.20;99.90;;;;;;5095308;28;20569;-68
2023/10/31 08:34:32;;;;;;;1.55;1.27;;;12.10;99.90;;;;;;5095255;28;20099;-73
2023/10/31 08:36:59;;;;;;;3.45;1.50;;;12.20;99.90;;;;;;5094565;28;20073;-71
2023/10/31 08:39:26;;;;;;;4.57;2.75;;;12.40;99.90;;;;;;5092891;28;20476;-73
2023/10/31 08:41:55;;;;;;;5.38;2.67;;;12.40;99.90;;;;;;5104471;28;20022;-71
2023/10/31 08:44:21;;;;;;;2.80;2.33;;;12.30;99.90;;;;;;5115358;28;20468;-71
2023/10/31 08:46:48;;;;;;;3.75;2.85;;;12.30;99.90;;;;;;5115578;28;20062;-71
2023/10/31 08:49:16;;;;;;;4.90;3.72;;;12.20;99.90;;;;;;5115550;28;20039;-71
2023/10/31 08:51:43;;;;;;;9.88;5.88;;;12.30;99.90;;;;;;5115485;28;20095;-71
2023/10/31 08:54:09;;;;;;;6.25;4.03;;;12.40;99.90;;;;;;5115682;28;20032;-72
2023/10/31 08:56:36;;;;;;;2.25;2.08;;;12.30;99.90;;;;;;5115481;28;20044;-71
2023/10/31 08:59:02;;;;;;;4.93;3.85;;;12.50;99.90;;;;;;5115351;28;20019;-72
2023/10/31 09:01:30;;;;;;;7.22;3.20;;;12.40;99.90;;;;;;5113853;28;20028;-72
2023/10/31 09:03:58;;;;;;;3.00;1.88;;;12.40;99.90;;;;;;5115580;28;20040;-71
2023/10/31 09:06:24;;;;;;;5.82;3.53;;;12.80;99.90;;;;;;5114865;28;20080;-71
2023/10/31 09:08:50;;;;;;;6.30;3.75;;;12.60;99.90;;;;;;5115499;28;20077;-72
2023/10/31 09:11:16;;;;;;;0.60;0.60;;;12.80;99.90;;;;;;5115210;28;20027;-72
2023/10/31 09:13:41;;;;;;;0.65;0.65;;;13.00;99.90;;;;;;5114931;28;20523;-71
2023/10/31 09:16:07;;;;;;;1.98;1.88;;;13.00;99.90;;;;;;5115023;28;20133;-72
2023/10/31 09:18:34;;;;;;;10.60;3.30;;;12.80;99.90;;;;;;5115222;28;20032;-74
2023/10/31 09:21:00;;;;;;;5.07;3.42;;;12.50;99.90;;;;;;5115228;28;20043;-74
2023/10/31 09:23:26;;;;;;;0.28;0.28;;;12.50;99.90;;;;;;5114970;28;20024;-73
2023/10/31 09:25:52;;;;;;;0.77;0.75;;;12.60;99.90;;;;;;5115056;28;20426;-73
2023/10/31 09:28:18;;;;;;;1.38;1.30;;;12.70;99.90;;;;;;5113329;28;20049;-73
2023/10/31 09:30:43;;;;;;;1.38;1.27;;;12.80;99.90;;;;;;5113655;28;20043;-73
2023/10/31 09:33:09;;;;;;;6.28;3.17;;;12.90;99.90;;;;;;5115527;28;20028;-71
2023/10/31 09:35:35;;;;;;;5.53;2.55;;;13.10;99.90;;;;;;5114736;28;20076;-71
2023/10/31 09:38:01;;;;;;;28.15;7.63;;;13.00;99.90;;;;;;5114843;28;20422;-71
2023/10/31 09:40:26;;;;;;;0.10;0.10;;;12.60;99.90;;;;;;5102668;28;20074;-71
2023/10/31 09:42:52;;;;;;;0.47;0.47;;;12.80;99.90;;;;;;5111776;28;20024;-71
2023/10/31 09:45:18;;;;;;;2.42;1.67;;;13.00;99.90;;;;;;5113337;28;20380;-71
2023/10/31 09:47:44;;;;;;;12.93;5.75;;;12.70;99.90;;;;;;5114448;28;20035;-71
2023/10/31 09:50:10;;;;;;;3.15;2.03;;;12.60;99.90;;;;;;5114311;28;20035;-71
2023/10/31 09:52:37;;;;;;;1.42;0.77;;;12.80;99.90;;;;;;5114300;28;20463;-71
2023/10/31 09:55:04;;;;;;;4.93;1.80;;;12.80;99.90;;;;;;5114275;28;20024;-71
2023/10/31 09:57:31;;;;;;;0.20;0.20;;;12.70;99.90;;;;;;5112931;28;20494;-71
2023/10/31 09:59:56;;;;;;;2.97;1.95;;;12.80;99.90;;;;;;5114544;28;20026;-73
2023/10/31 10:02:22;;;;;;;3.42;2.38;;;12.60;99.90;;;;;;5114041;28;20028;-73
2023/10/31 10:04:49;;;;;;;2.60;2.10;;;12.70;99.90;;;;;;5114233;28;20042;-72
2023/10/31 10:07:19;;;;;;;6.78;4.63;;;12.40;99.90;;;;;;5114142;28;20372;-73
2023/10/31 10:09:48;;;;;;;4.38;1.08;;;12.50;99.90;;;;;;5114018;27;20383;-73
2023/10/31 10:12:16;;;;;;;4.35;2.60;;;12.50;99.90;;;;;;5114229;28;20012;-72
2023/10/31 10:14:44;;;;;;;0.00;0.00;;;12.50;99.90;;;;;;5113972;28;20065;-72
2023/10/31 10:17:17;;;;;;;0.35;0.28;;;12.60;99.90;;;;;;5112555;28;20016;-73
2023/10/31 10:19:43;;;;;;;4.10;2.58;;;13.00;99.90;;;;;;5113918;28;20031;-73
2023/10/31 10:22:10;;;;;;;2.83;2.03;;;13.00;99.90;;;;;;5113717;28;20022;-73
2023/10/31 10:24:38;;;;;;;0.60;0.60;;;13.00;99.90;;;;;;5113763;28;20046;-72
2023/10/31 10:27:04;;;;;;;1.90;1.48;;;12.90;99.90;;;;;;5113758;28;20061;-72
2023/10/31 10:29:30;;;;;;;7.05;2.70;;;12.60;99.90;;;;;;5113804;28;20032;-73
2023/10/31 10:31:57;;;;;;;0.43;0.43;;;12.90;99.90;;;;;;5113391;28;20099;-72
2023/10/31 10:34:23;;;;;;;2.17;1.08;;;13.00;99.90;;;;;;5113827;28;20118;-71
2023/10/31 10:36:49;;;;;;;11.43;3.00;;;13.20;99.90;;;;;;5113740;28;20110;-72
2023/10/31 10:39:23;;;;;;;3.28;2.83;;;13.00;99.90;;;;;;5110426;28;20051;-72
2023/10/31 10:41:55;;;;;;;4.72;3.28;;;12.90;99.90;;;;;;5101904;28;20020;-71
2023/10/31 10:44:30;;;;;;;2.53;1.90;;;12.80;99.90;;;;;;5113459;28;20114;-72
2023/10/31 10:46:56;;;;;;;1.08;1.00;;;12.70;99.90;;;;;;5113312;28;20084;-72
2023/10/31 10:49:25;;;;;;;2.08;1.75;;;12.80;99.90;;;;;;5113238;28;20036;-71
2023/10/31 10:52:02;;;;;;;0.95;0.90;;;12.70;99.90;;;;;;5113369;28;20027;-72
2023/10/31 10:54:55;;;;;;;0.35;0.35;;;12.80;99.90;;;;;;5113224;28;20498;-72
2023/10/31 10:57:24;;;;;;;5.68;3.22;;;13.00;99.90;;;;;;5111794;28;20153;-71
2023/10/31 10:59:56;;;;;;;2.72;1.17;;;12.90;99.90;;;;;;5113328;28;20023;-71
2023/10/31 11:02:23;;;;;;;8.35;1.98;;;12.70;99.90;;;;;;5097445;28;20024;-73
2023/10/31 11:04:49;;;;;;;0.52;0.52;;;12.70;99.90;;;;;;5096124;28;20039;-71
2023/10/31 11:07:17;;;;;;;1.85;1.42;;;12.80;99.90;;;;;;5091993;28;20099;-72
2023/10/31 11:09:44;;;;;;;3.00;1.60;;;12.90;99.90;;;;;;5092119;28;20044;-72
2023/10/31 11:12:11;;;;;;;5.68;2.15;;;12.70;99.90;;;;;;5092774;28;20065;-72
2023/10/31 11:14:37;;;;;;;0.98;0.93;;;12.40;99.90;;;;;;5092518;28;20125;-68
2023/10/31 11:17:22;;;;;;;6.35;1.85;;;12.30;99.90;;;;;;5092611;28;20020;-69
2023/10/31 11:19:48;;;;;;;1.27;1.02;;;12.40;99.90;;;;;;5092583;28;20097;-70
2023/10/31 11:22:13;;;;;;;2.45;0.90;;;12.40;99.90;;;;;;5092491;28;20464;-70
2023/10/31 11:24:41;;;;;;;0.50;0.50;;;12.50;99.90;;;;;;5090844;28;20020;-70
2023/10/31 11:27:07;;;;;;;0.25;0.25;;;12.50;99.90;;;;;;5093355;28;20434;-70
2023/10/31 11:29:34;;;;;;;0.75;0.75;;;12.80;99.90;;;;;;5103477;28;20138;-71
2023/10/31 11:32:00;;;;;;;3.10;2.15;;;12.90;99.90;;;;;;5099422;28;20534;-70
2023/10/31 11:34:27;;;;;;;0.28;0.28;;;12.90;99.90;;;;;;5098156;28;20028;-70
2023/10/31 11:36:53;;;;;;;7.13;1.85;;;12.90;99.90;;;;;;5114416;27;20039;-71
2023/10/31 11:39:25;;;;;;;0.40;0.40;;;12.80;99.90;;;;;;5097226;28;20028;-70
2023/10/31 11:41:54;;;;;;;0.57;0.57;;;12.80;99.90;;;;;;5110222;28;20037;-69
2023/10/31 11:44:26;;;;;;;3.35;1.17;;;12.70;99.90;;;;;;5114866;28;20024;-69
2023/10/31 11:46:52;;;;;;;1.52;1.33;;;12.50;99.90;;;;;;5128444;28;20039;-70
2023/10/31 11:49:45;;;;;;;4.40;0.95;;;12.50;99.90;;;;;;5121286;28;20096;-72
2023/10/31 11:52:18;;;;;;;4.30;2.88;;;12.50;99.90;;;;;;5118100;28;20028;-73
2023/10/31 11:54:44;;;;;;;6.75;2.63;;;12.40;99.90;;;;;;5110188;28;20028;-72
2023/10/31 11:57:10;;;;;;;0.82;0.80;;;12.40;99.90;;;;;;5114513;28;20106;-73
2023/10/31 11:59:39;;;;;;;0.25;0.25;;;12.50;99.90;;;;;;5117056;28;20039;-73
2023/10/31 12:02:15;;;;;;;2.75;1.25;;;12.60;99.90;;;;;;5107412;28;20480;-72
2023/10/31 12:04:41;;;;;;;0.10;0.10;;;12.60;99.90;;;;;;5096888;28;20118;-72
2023/10/31 12:07:08;;;;;;;0.65;0.55;;;12.60;99.90;;;;;;5092152;28;20051;-72
2023/10/31 12:09:48;;;;;;;3.60;1.48;;;12.70;99.90;;;;;;5113777;28;20042;-72
2023/10/31 12:12:15;;;;;;;9.23;3.22;;;12.40;99.90;;;;;;5110886;28;20066;-72
2023/10/31 12:14:41;;;;;;;6.05;3.05;;;12.30;99.90;;;;;;5099881;27;20031;-73
2023/10/31 12:17:07;;;;;;;3.15;0.68;;;12.40;99.90;;;;;;5099142;27;20119;-73
2023/10/31 12:19:33;;;;;;;0.17;0.17;;;12.30;99.90;;;;;;5093741;28;20062;-71
2023/10/31 12:21:59;;;;;;;7.22;2.63;;;12.20;99.90;;;;;;5118935;27;20027;-73
2023/10/31 12:24:24;;;;;;;3.83;1.75;;;12.20;99.90;;;;;;5114225;27;20020;-73
2023/10/31 12:26:51;;;;;;;0.40;0.20;;;12.20;99.90;;;;;;5111474;27;20472;-72
2023/10/31 12:29:19;;;;;;;0.43;0.43;;;12.30;99.90;;;;;;5096979;27;20098;-71
2023/10/31 12:31:46;;;;;;;0.30;0.30;;;12.40;99.90;;;;;;5107980;27;20035;-73
2023/10/31 12:34:13;;;;;;;2.28;1.48;;;12.50;99.90;;;;;;5114784;27;20024;-71
2023/10/31 12:36:40;;;;;;;1.70;1.48;;;12.50;99.90;;;;;;5101363;27;20038;-70
2023/10/31 12:39:11;;;;;;;11.27;1.98;;;12.60;99.90;;;;;;5096143;27;20020;-71
2023/10/31 12:41:38;;;;;;;1.23;1.10;;;12.60;99.90;;;;;;5103671;27;20074;-71
2023/10/31 12:44:04;;;;;;;2.28;1.15;;;12.40;99.90;;;;;;5098459;27;20433;-71